KDED/DED METAR and TAF weather

Enter ICAO airport designator
Station Type Date Time Source
KDED METAR 2019/10/23 12:55 UTC NOAA

KDED 231255Z AUTO 34007KT 10SM OVC035 20/11 A3008 RMK AO2


Station Type Date Time Source
KDED Decoded METAR 2019/10/23 12:55 UTC NOAA

Station name not available
Oct 23, 2019 - 08:55 AM EDT / 2019.10.23 1255 UTC
Wind: from the NNW (340 degrees) at 8 MPH (7 KT):0
Visibility: 10 mile(s):0
Sky conditions: overcast
Temperature: 68 F (20 C)
Dew Point: 51 F (11 C)
Relative Humidity: 56%
Pressure (altimeter): 30.08 in. Hg (1018 hPa)
ob: KDED 231255Z AUTO 34007KT 10SM OVC035 20/11 A3008 RMK AO2
cycle: 13

Station Type Date Time Source
KDED TAF UTC NOAA

Error!

Example: see airport list